This is the latest recevied weather packets stored in our database for station/object KN4QD-13. If no packets are shown the sender has not sent any weather packets the latest 10 day(s).
| Time | Temp. | Humidity | Pressure | Rain* | Wind** | Luminosity | Snow |
|---|---|---|---|---|---|---|---|
| 1777449156 | 13.89° C | 93% | 1017 hPa | 0 mm | - | - | - |
| 1777448536 | 13.89° C | 92% | 1016.9 hPa | 0 mm | - | - | - |
| 1777446136 | 13.33° C | 95% | 1016.9 hPa | 0 mm | - | - | - |
| 1777445536 | 13.33° C | 94% | 1016.9 hPa | 0 mm | - | - | - |
| 1777444336 | 13.33° C | 95% | 1017 hPa | 0 mm | - | - | - |
| 1777442536 | 13.33° C | 94% | 1016.8 hPa | 0 mm | - | - | - |
| 1777439536 | 13.89° C | 93% | 1017 hPa | 0 mm | - | - | - |
| 1777435936 | 13.89° C | 92% | 1016.5 hPa | 0 mm | - | - | - |
| 1777433536 | 14.44° C | 92% | 1016.1 hPa | 0 mm | - | - | - |
| 1777432936 | 14.44° C | 92% | 1016.7 hPa | 0 mm | - | - | - |
| 1777428136 | 15° C | 90% | 1018.7 hPa | 0 mm | - | - | - |
| 1777425736 | 15° C | 89% | 1018.4 hPa | 0 mm | - | - | - |
| 1777424536 | 15.56° C | 88% | 1018.4 hPa | 0 mm | - | - | - |
| 1777423336 | 15.56° C | 88% | 1018 hPa | 0 mm | - | - | - |
| 1777422136 | 15.56° C | 87% | 1017.7 hPa | 0 mm | - | - | - |
| 1777420336 | 16.11° C | 87% | 1016.7 hPa | 0 mm | - | - | - |
| 1777419136 | 16.67° C | 85% | 1017.1 hPa | 0 mm | - | - | - |
| 1777415536 | 17.78° C | 81% | 1018.2 hPa | 0 mm | - | - | - |
| 1777413736 | 18.33° C | 80% | 1018.1 hPa | 0 mm | - | - | - |
| 1777413136 | 18.33° C | 79% | 1017.8 hPa | 0 mm | - | - | - |
| 1777408936 | 18.89° C | 80% | 1019.2 hPa | 0 mm | - | - | - |
| 1777407135 | 19.44° C | 76% | 1019.8 hPa | 0 mm | - | - | - |
| 1777404735 | 18.89° C | 74% | 1019.9 hPa | 0 mm | - | - | - |
| 1777404135 | 18.33° C | 75% | 1019.7 hPa | 0 mm | - | - | - |
| 1777395735 | 16.67° C | 85% | 1020.2 hPa | 0 mm | - | - | - |
* Rain latest hour (hover to see other rain measurements)
** Current wind speed in m/s (hover to see current wind gust speed)